Data for 12/16/2013

Time Sea-Level Adjusted Pressure Absolute Pressure Temperature Relative Humidity Dew Point   
(mb) (inHg) (mb) (inHg) (C) (F) (%) (C) (F)
00:05 1021 30.15 850 25.1 5.2 41.3 40 -7.5 18.5
00:10 1021 30.15 850 25.1 5.3 41.6 38 -7.8 17.9
00:15 1021 30.15 850 25.1 5.6 42 37 -7.9 17.7
00:20 1021 30.15 850 25.1 5.7 42.3 37 -7.8 17.9
00:25 1021 30.15 850 25.1 5.6 42.1 38 -7.6 18.4
00:30 1021 30.15 850 25.1 5.5 41.9 38 -7.7 18.1
00:35 1021 30.15 850 25.1 5.5 41.9 37 -8 17.7
00:40 1021 30.15 850 25.1 5.7 42.2 35 -8.4 16.8
00:45 1021 30.15 850 25.1 6.1 43 34 -8.8 16.2
00:50 1021 30.15 850 25.1 6.2 43.2 35 -8.2 17.2
00:55 1021 30.15 850 25.1 6.1 43 34 -8.6 16.4
01:00 1021 30.15 850 25.1 6.5 43.7 32 -9.2 15.4
01:05 1021 30.15 850 25.1 6.6 43.9 34 -8.3 17
01:10 1021 30.15 850 25.1 6.3 43.4 34 -8.4 16.8
01:15 1021 30.15 850 25.1 6.1 43 35 -8.3 17
01:20 1021 30.15 850 25.1 6 42.8 34 -8.7 16.3
01:25 1021 30.15 850 25.1 6.1 42.9 34 -8.7 16.4
01:30 1021 30.15 850 25.1 6.1 43 34 -8.8 16.2
01:35 1021 30.15 850 25.1 6.2 43.1 34 -8.6 16.6
01:40 1021 30.15 850 25.1 6 42.8 34 -8.7 16.3
01:45 1021 30.15 850 25.1 6.1 42.9 34 -8.6 16.5
01:50 1021 30.15 850 25.1 6.1 43 33 -8.9 16
01:55 1021 30.15 850 25.1 6 42.9 34 -8.7 16.3
02:00 1021 30.15 850 25.1 6 42.9 33 -9 15.8
02:05 1021 30.15 850 25.1 6 42.7 34 -8.8 16.1
02:10 1021 30.15 850 25.1 5.8 42.5 34 -8.9 16
02:15 1021 30.15 850 25.1 5.8 42.5 34 -8.9 16
02:20 1021 30.15 850 25.1 5.7 42.3 35 -8.7 16.4
02:25 1021 30.15 850 25.1 5.6 42.1 35 -8.5 16.6
02:30 1021 30.15 850 25.1 5.4 41.8 36 -8.3 17
02:35 1021 30.15 850 25.1 5 41 38 -8.2 17.3
02:40 1021 30.15 850 25.1 4.4 39.8 39 -8.5 16.8
02:45 1021 30.15 850 25.1 4.1 39.5 41 -8.1 17.4
02:50 1021 30.15 850 25.1 4.1 39.5 38 -9 15.9
02:55 1021 30.15 850 25.1 4.4 39.9 38 -8.7 16.4
03:00 1021 30.15 850 25.1 4.5 40.2 37 -9 15.8
03:05 1021 30.15 850 25.1 4.7 40.5 37 -8.8 16.1
03:10 1021 30.15 850 25.1 4.7 40.4 38 -8.6 16.6
03:15 1021 30.15 850 25.1 4.4 39.8 38 -8.8 16.1
03:20 1021 30.15 850 25.1 4.3 39.7 39 -8.7 16.4
03:25 1021 30.15 850 25.1 4.1 39.3 40 -8.4 16.9
03:30 1021 30.15 850 25.1 3.7 38.7 41 -8.5 16.7
03:35 1021 30.15 850 25.1 3.7 38.6 40 -8.9 16
03:40 1021 30.15 850 25.1 3.7 38.7 41 -8.4 16.8
03:45 1021 30.15 850 25.1 3.5 38.4 40 -8.7 16.3
03:50 1021 30.15 850 25.1 3.5 38.2 40 -8.8 16.2
03:55 1021 30.15 850 25.1 3.4 38 41 -8.8 16.2
04:00 1021 30.15 850 25.1 3.2 37.7 42 -8.6 16.5
04:05 1021 30.15 850 25.1 3.2 37.8 41 -8.9 16
04:10 1021 30.15 850 25.1 3.3 37.9 41 -8.9 16
04:15 1021 30.15 850 25.1 2.8 37.1 44 -8.2 17.2
04:20 1021 30.15 850 25.1 2.3 36.1 44 -8.6 16.5
04:25 1021 30.15 850 25.1 2.2 35.9 45 -8.5 16.6
04:30 1021 30.15 850 25.1 2.1 35.7 45 -8.7 16.4
04:35 1021 30.15 850 25.1 2.3 36.1 44 -8.9 16.1
04:40 1021 30.15 850 25.1 2.3 36.2 45 -8.5 16.7
04:45 1021 30.15 851 25.13 2.4 36.3 44 -8.7 16.4
04:50 1021 30.15 851 25.13 2.3 36.1 44 -8.7 16.3
04:55 1021 30.15 851 25.13 2.3 36.1 44 -8.7 16.3
05:00 1021 30.15 851 25.13 2.3 36.2 43 -9.1 15.6
05:05 1021 30.15 851 25.13 2.6 36.8 41 -9.3 15.3
05:10 1021 30.15 851 25.13 3 37.4 40 -9.4 15.2
05:15 1021 30.15 851 25.13 2.9 37.2 42 -8.8 16.1
05:20 1021 30.15 851 25.13 2.8 37.1 39 -9.7 14.5
05:25 1021 30.15 851 25.13 3.1 37.6 39 -9.5 15
05:30 1021 30.15 850 25.1 3 37.4 39 -9.8 14.3
05:35 1021 30.15 850 25.1 3.1 37.6 39 -9.7 14.6
05:40 1021 30.15 850 25.1 3.2 37.8 38 -9.8 14.4
05:45 1021 30.15 850 25.1 3.5 38.3 37 -9.7 14.5
05:50 1021 30.15 850 25.1 3.3 38 38 -9.8 14.4
05:55 1021 30.15 850 25.1 3.3 37.9 38 -9.7 14.5
06:00 1021 30.15 850 25.1 3.3 37.9 37 -9.9 14.1
06:05 1021 30.15 851 25.13 3.5 38.2 37 -10 13.9
06:10 1021 30.15 850 25.1 3.8 38.8 35 -10.3 13.4
06:15 1021 30.15 851 25.13 3.8 38.9 36 -10.1 13.9
06:20 1021 30.15 851 25.13 3.8 38.9 34 -10.5 13.1
06:25 1021 30.15 850 25.1 4 39.2 36 -9.9 14.1
06:30 1021 30.15 851 25.13 3.6 38.4 38 -9.6 14.7
06:35 1021 30.15 850 25.1 3.1 37.5 39 -9.7 14.5
06:40 1021 30.15 850 25.1 2.8 37.1 39 -9.7 14.6
06:45 1021 30.15 850 25.1 2.5 36.5 41 -9.5 14.8
06:50 1021 30.15 850 25.1 2.2 36 41 -9.7 14.6
06:55 1021 30.15 850 25.1 2.3 36.1 41 -9.7 14.6
07:00 1021 30.15 850 25.1 2.3 36.2 41 -9.6 14.6
07:05 1021 30.15 850 25.1 2.2 35.9 43 -9.3 15.3
07:10 1021 30.15 850 25.1 1.8 35.3 44 -9.1 15.6
07:15 1021 30.15 850 25.1 1.6 34.8 44 -9.3 15.3
07:20 1021 30.15 850 25.1 1.4 34.6 46 -9.1 15.6
07:25 1021 30.15 850 25.1 1.5 34.7 44 -9.6 14.8
07:30 1021 30.15 850 25.1 1.7 35.1 44 -9.2 15.5
07:35 1021 30.15 850 25.1 0.9 33.7 46 -9.4 15
07:40 1021 30.15 850 25.1 0.7 33.3 45 -10 14.1
07:45 1021 30.15 850 25.1 1.6 34.8 42 -10 14
07:50 1021 30.15 850 25.1 1.6 34.8 43 -9.7 14.5
07:55 1021 30.15 850 25.1 1.2 34.1 43 -9.9 14.1
08:00 1021 30.15 850 25.1 1.5 34.8 43 -9.8 14.4
08:05 1021 30.15 850 25.1 1.2 34.1 43 -10.1 13.9
08:10 1021 30.15 850 25.1 1.6 34.8 42 -10.2 13.7
08:15 1021 30.15 850 25.1 1.9 35.5 41 -10 13.9
08:20 1021 30.15 851 25.13 1.8 35.2 42 -9.7 14.6
08:25 1021 30.15 851 25.13 1.5 34.6 44 -9.5 14.8
08:30 1022 30.18 851 25.13 1 33.8 46 -9.4 15
08:35 1022 30.18 851 25.13 0.4 32.7 48 -9.5 14.9
08:40 1022 30.18 851 25.13 0.1 32.2 47 -9.9 14.2
08:45 1022 30.18 851 25.13 0.4 32.7 46 -9.9 14.2
08:50 1022 30.18 851 25.13 0.5 32.9 46 -9.8 14.3
08:55 1022 30.18 851 25.13 0.5 32.9 47 -9.4 15
09:00 1022 30.18 851 25.13 0.4 32.7 49 -9.2 15.5
09:05 1022 30.18 851 25.13 0.6 33 46 -9.7 14.5
09:10 1022 30.18 851 25.13 0.6 33.1 46 -9.8 14.3
09:15 1022 30.18 851 25.13 0.8 33.5 45 -9.9 14.2
09:20 1022 30.18 851 25.13 1 33.7 45 -9.8 14.3
09:25 1022 30.18 851 25.13 1.1 33.9 45 -9.6 14.7
09:30 1022 30.18 851 25.13 1.3 34.3 44 -9.8 14.4
09:35 1022 30.18 851 25.13 1.8 35.2 42 -9.9 14.1
09:40 1022 30.18 852 25.16 2.3 36.2 39 -10.3 13.4
09:45 1023 30.21 852 25.16 2.8 37.1 38 -10.1 13.7
09:50 1023 30.21 852 25.16 3.1 37.6 37 -10.2 13.7
09:55 1023 30.21 852 25.16 3.1 37.6 38 -10 14
10:00 1023 30.21 852 25.16 3 37.5 38 -10 14.1
10:05 1023 30.21 852 25.16 3 37.5 38 -10 14
10:10 1023 30.21 852 25.16 3.1 37.6 38 -10 14
10:15 1023 30.21 852 25.16 3.2 37.8 38 -9.8 14.4
10:20 1023 30.21 852 25.16 3.1 37.6 39 -9.6 14.7
10:25 1023 30.21 852 25.16 3 37.4 40 -9.2 15.4
10:30 1023 30.21 852 25.16 2.9 37.3 40 -9.3 15.3
10:35 1023 30.21 853 25.19 2.8 37.1 42 -9 15.9
10:40 1023 30.21 853 25.19 2.6 36.7 42 -9.2 15.5
10:45 1023 30.21 853 25.19 2.6 36.6 41 -9.3 15.3
10:50 1024 30.24 853 25.19 2.7 36.9 41 -9.2 15.4
10:55 1023 30.21 853 25.19 2.7 36.8 41 -9.3 15.3
11:00 1023 30.21 853 25.19 2.9 37.2 39 -9.7 14.6
11:05 1023 30.21 853 25.19 3.1 37.6 38 -9.8 14.4
11:10 1023 30.21 853 25.19 3.3 38 39 -9.4 15.1
11:15 1023 30.21 853 25.19 2.8 37 40 -9.5 14.9
11:20 1024 30.24 853 25.19 2.9 37.2 40 -9.3 15.2
11:25 1024 30.24 853 25.19 2.9 37.1 38 -10 14.1
11:30 1024 30.24 853 25.19 3.6 38.5 38 -9.4 15
11:35 1024 30.24 853 25.19 3.7 38.7 38 -9.4 15
11:40 1023 30.21 853 25.19 3.9 39.1 37 -9.5 14.8
11:45 1024 30.24 853 25.19 4.2 39.6 37 -9.1 15.7
11:50 1024 30.24 853 25.19 4.7 40.4 37 -8.9 16
11:55 1024 30.24 853 25.19 5.2 41.4 36 -8.5 16.7
12:00 1024 30.24 853 25.19 5.2 41.4 36 -8.7 16.3
12:05 1024 30.24 853 25.19 5.6 42.1 33 -9.4 15
12:10 1024 30.24 853 25.19 5.8 42.5 34 -9 15.8
12:15 1024 30.24 853 25.19 6.1 43 32 -9.3 15.3
12:20 1024 30.24 853 25.19 6.2 43.2 32 -9.2 15.5
12:25 1023 30.21 853 25.19 6.5 43.7 32 -9.1 15.7
12:30 1024 30.24 853 25.19 6.8 44.2 31 -9.3 15.2
12:35 1023 30.21 853 25.19 7.1 44.7 30 -9.5 15
12:40 1023 30.21 853 25.19 7.2 45 30 -9.3 15.2
12:45 1023 30.21 853 25.19 7.3 45.1 31 -8.6 16.5
12:50 1023 30.21 852 25.16 7.1 44.8 32 -8.5 16.7
12:55 1023 30.21 852 25.16 7.1 44.8 30 -9.2 15.4
13:00 1023 30.21 852 25.16 7.2 45 31 -8.9 15.9
13:05 1023 30.21 852 25.16 7.2 45 31 -8.7 16.3
13:10 1023 30.21 852 25.16 7.1 44.8 31 -8.9 16
13:15 1023 30.21 852 25.16 7.3 45.1 31 -8.7 16.4
13:20 1023 30.21 852 25.16 7.2 45 32 -8.5 16.7
13:25 1023 30.21 852 25.16 7.4 45.2 31 -8.7 16.4
13:30 1023 30.21 852 25.16 7.4 45.2 31 -8.8 16.2
13:35 1023 30.21 852 25.16 7.8 46 30 -8.6 16.5
13:40 1023 30.21 852 25.16 8.2 46.7 30 -8.5 16.8
13:45 1023 30.21 852 25.16 8.1 46.5 29 -8.9 16
13:50 1023 30.21 852 25.16 8.4 47.2 29 -8.7 16.3
13:55 1023 30.21 852 25.16 9 48.2 27 -9.1 15.6
14:00 1023 30.21 852 25.16 8.8 47.8 26 -9.5 15
14:05 1023 30.21 852 25.16 8.8 47.8 27 -9.2 15.5
14:10 1023 30.21 852 25.16 8.6 47.5 28 -9.1 15.7
14:15 1023 30.21 852 25.16 8.3 47 29 -8.9 15.9
14:20 1023 30.21 852 25.16 8.3 47 28 -9 15.8
14:25 1023 30.21 852 25.16 8.2 46.7 29 -8.7 16.3
14:30 1023 30.21 852 25.16 8 46.5 30 -8.6 16.6
14:35 1023 30.21 852 25.16 7.9 46.3 29 -9.2 15.5
14:40 1023 30.21 852 25.16 7.7 45.8 29 -9.2 15.5
14:45 1023 30.21 852 25.16 7.6 45.7 30 -8.8 16.1
14:50 1023 30.21 852 25.16 7.7 45.8 31 -8.6 16.6
14:55 1023 30.21 852 25.16 7.8 46 31 -8.2 17.2
15:00 1023 30.21 852 25.16 7.8 46.1 31 -8.2 17.3
15:05 1023 30.21 852 25.16 7.8 46.1 30 -8.8 16.2
15:10 1023 30.21 852 25.16 7.5 45.5 31 -8.6 16.6
15:15 1023 30.21 852 25.16 7.5 45.6 31 -8.5 16.8
15:20 1023 30.21 852 25.16 7.7 45.9 29 -9 15.7
15:25 1023 30.21 852 25.16 8.1 46.6 30 -8.5 16.6
15:30 1023 30.21 852 25.16 8.8 47.8 30 -8 17.6
15:35 1023 30.21 852 25.16 9.1 48.4 28 -8.2 17.2
15:40 1023 30.21 852 25.16 8.9 48 29 -8.1 17.4
15:45 1023 30.21 852 25.16 8.8 47.9 28 -8.5 16.7
15:50 1023 30.21 852 25.16 8.5 47.4 30 -8.2 17.2
15:55 1023 30.21 852 25.16 8.2 46.7 30 -8.4 16.9
16:00 1023 30.21 852 25.16 7.8 46.1 32 -7.7 18.2
16:05 1023 30.21 853 25.19 7.6 45.6 33 -7.9 17.8
16:10 1023 30.21 853 25.19 7.4 45.4 33 -7.9 17.8
16:15 1023 30.21 852 25.16 7.4 45.3 33 -7.7 18.1
16:20 1023 30.21 852 25.16 7.4 45.4 34 -7.6 18.3
16:25 1023 30.21 852 25.16 7.3 45.1 33 -7.8 18
16:30 1023 30.21 852 25.16 7.2 45 32 -8.2 17.2
16:35 1023 30.21 852 25.16 7.3 45.1 32 -8.2 17.3
16:40 1023 30.21 852 25.16 7.3 45.2 32 -8.2 17.2
16:45 1023 30.21 852 25.16 7.3 45.1 33 -8 17.6
16:50 1023 30.21 852 25.16 7.2 45 30 -9.1 15.6
16:55 1023 30.21 852 25.16 7.5 45.5 32 -8.1 17.5
17:00 1023 30.21 853 25.19 7.1 44.9 32 -8.6 16.5
17:05 1023 30.21 853 25.19 7.2 44.9 33 -8.2 17.3
17:10 1023 30.21 853 25.19 7 44.6 33 -8 17.5
17:15 1023 30.21 853 25.19 7.1 44.7 33 -8 17.6
17:20 1023 30.21 853 25.19 6.8 44.2 35 -7.5 18.4
17:25 1023 30.21 853 25.19 6.7 44 35 -7.6 18.4
17:30 1023 30.21 853 25.19 6.7 44 34 -8.1 17.5
17:35 1024 30.24 853 25.19 6.7 44.1 35 -7.7 18.1
17:40 1024 30.24 853 25.19 6.6 43.9 35 -7.8 18
17:45 1024 30.24 853 25.19 6.6 43.9 34 -8.2 17.2
17:50 1024 30.24 853 25.19 6.7 44 35 -7.8 17.9
17:55 1024 30.24 853 25.19 6.6 43.8 36 -7.3 18.8
18:00 1024 30.24 853 25.19 6.4 43.5 35 -7.9 17.8
18:05 1024 30.24 853 25.19 6.4 43.5 36 -7.6 18.3
18:10 1024 30.24 853 25.19 6.3 43.4 36 -7.6 18.3
18:15 1024 30.24 853 25.19 6.3 43.3 37 -7.5 18.6
18:20 1024 30.24 853 25.19 6.1 43 37 -7.6 18.2
18:25 1024 30.24 853 25.19 6.3 43.3 35 -8.2 17.3
18:30 1024 30.24 853 25.19 6.6 43.8 34 -8.3 17.1
18:35 1024 30.24 853 25.19 6.5 43.7 34 -8.1 17.4
18:40 1024 30.24 853 25.19 6.4 43.4 37 -7.3 18.9
18:45 1024 30.24 853 25.19 6.1 43 38 -7.3 18.8
18:50 1024 30.24 853 25.19 6.1 43 37 -7.4 18.8
18:55 1024 30.24 853 25.19 6.1 43 36 -7.7 18.1
19:00 1024 30.24 853 25.19 6.2 43.2 37 -7.6 18.4
19:05 1024 30.24 853 25.19 6.2 43.2 36 -7.7 18.2
19:10 1024 30.24 853 25.19 6.1 43 37 -7.6 18.4
19:15 1024 30.24 853 25.19 6.1 42.9 37 -7.6 18.3
19:20 1024 30.24 853 25.19 6.2 43.1 37 -7.6 18.3
19:25 1024 30.24 853 25.19 6.1 43 37 -7.5 18.5
19:30 1024 30.24 853 25.19 6.1 43.1 36 -7.7 18.1
19:35 1024 30.24 853 25.19 6.5 43.7 33 -8.7 16.4
19:40 1024 30.24 853 25.19 6.6 43.8 36 -7.6 18.3
19:45 1024 30.24 853 25.19 6.3 43.4 36 -7.7 18.1
19:50 1024 30.24 853 25.19 6.2 43.1 36 -7.9 17.8
19:55 1024 30.24 853 25.19 6.1 43 37 -7.6 18.3
20:00 1024 30.24 853 25.19 6 42.8 38 -7.3 18.8
20:05 1024 30.24 853 25.19 5.8 42.4 39 -7 19.3
20:10 1024 30.24 853 25.19 5.7 42.2 41 -6.6 20.2
20:15 1024 30.24 853 25.19 5.5 42 39 -7.4 18.6
20:20 1024 30.24 853 25.19 5.7 42.3 39 -7.1 19.3
20:25 1024 30.24 853 25.19 5.6 42 41 -6.8 19.8
20:30 1024 30.24 853 25.19 5.5 41.8 39 -7.2 19
20:35 1024 30.24 853 25.19 5.6 42.1 37 -8 17.7
20:40 1024 30.24 853 25.19 6.1 42.9 35 -8.3 17
20:45 1024 30.24 853 25.19 6.3 43.4 35 -8 17.6
20:50 1024 30.24 853 25.19 6.4 43.6 34 -8.5 16.7
20:55 1024 30.24 853 25.19 6.7 44.1 33 -8.4 16.9
21:00 1024 30.24 853 25.19 6.6 43.8 35 -7.9 17.8
21:05 1024 30.24 853 25.19 6.3 43.3 36 -7.5 18.4
21:10 1024 30.24 853 25.19 6.1 42.9 36 -7.8 18
21:15 1024 30.24 853 25.19 6.2 43.2 36 -7.7 18.2
21:20 1024 30.24 853 25.19 6.2 43.1 37 -7.5 18.5
21:25 1024 30.24 853 25.19 6 42.8 41 -6.3 20.6
21:30 1024 30.24 853 25.19 5.6 42.1 41 -6.6 20.1
21:35 1024 30.24 853 25.19 5.6 42 42 -6.4 20.5
21:40 1024 30.24 853 25.19 5.4 41.7 42 -6.5 20.3
21:45 1024 30.24 853 25.19 5.2 41.4 47 -5.3 22.5
21:50 1024 30.24 854 25.22 4.6 40.2 47 -5.7 21.8
21:55 1024 30.24 854 25.22 4.3 39.7 47 -5.9 21.3
22:00 1024 30.24 854 25.22 4.1 39.3 46 -6.6 20.2
22:05 1025 30.27 854 25.22 4.2 39.5 46 -6.5 20.2
22:10 1025 30.27 854 25.22 4.3 39.7 47 -6 21.1
22:15 1025 30.27 854 25.22 4.2 39.6 44 -6.8 19.8
22:20 1025 30.27 854 25.22 4.5 40 45 -6.5 20.2
22:25 1025 30.27 854 25.22 4.5 40.1 44 -6.7 20
22:30 1025 30.27 854 25.22 4.4 40 45 -6.5 20.2
22:35 1025 30.27 854 25.22 4.3 39.8 45 -6.5 20.3
22:40 1025 30.27 854 25.22 4.3 39.7 45 -6.7 19.9
22:45 1025 30.27 854 25.22 4.3 39.7 44 -6.9 19.7
22:50 1025 30.27 854 25.22 4.2 39.6 44 -6.9 19.5
22:55 1025 30.27 854 25.22 4.2 39.5 44 -7 19.4
23:00 1025 30.27 854 25.22 4.1 39.3 45 -6.8 19.7
23:05 1025 30.27 854 25.22 4 39.3 43 -7.5 18.5
23:10 1025 30.27 854 25.22 4.1 39.5 44 -7.1 19.2
23:15 1025 30.27 854 25.22 3.9 39.1 45 -7 19.4
23:20 1025 30.27 854 25.22 3.8 38.8 46 -6.9 19.5
23:25 1025 30.27 854 25.22 3.6 38.5 45 -7.2 19
23:30 1025 30.27 854 25.22 3.6 38.5 45 -7.3 18.8
23:35 1025 30.27 854 25.22 3.6 38.4 46 -7.1 19.2
23:40 1025 30.27 854 25.22 3.4 38.2 46 -7.1 19.3
23:45 1025 30.27 854 25.22 3.4 38.1 46 -7.2 19
23:50 1025 30.27 854 25.22 3.2 37.8 45 -7.4 18.6
23:55 1025 30.27 855 25.25 3.1 37.5 46 -7.3 18.8
24:00 1025 30.27 855 25.25 2.9 37.2 47 -7.4 18.7